Toa Baja, PR

4:15 PM AST on January 23, 2017 (GMT -0400)
KP4MP DAVIS | | Change Station
Active Advisory: Coastal Hazard Statement

Elev 17 ft 18.44 °N, 66.18 °W | Updated 4 seconds ago

Partly Cloudy
Partly Cloudy
84.9 °F
Feels Like 87 °F
N
14.1
Wind Variable Wind from SE
Gusts 15.0 mph

Today
High -- | Low -- °F
--% Chance of Precip.
Yesterday
High -- | Low -- °F
Precip. -- in
Pressure 29.89 in
Visibility 10.0 miles
Clouds Few 3400 ft
Scattered Clouds 6000 ft
Heat Index 87 °F
Dew Point 65 °F
Humidity 52%
Rainfall 0.00 in
Snow Depth Not available.
6:59 AM 6:13 PM
Waning Crescent, 16% visible
METAR TJSJ 231956Z 17011G16KT 10SM FEW034 SCT060 29/19 A2989 RMK AO2 SLP120 T02940189
Pressure 29.89 in
Visibility 10.0 miles
Clouds Few 3400 ft
Scattered Clouds 6000 ft
Heat Index 87 °F
Dew Point 65 °F
Humidity 52%
Rainfall 0.00 in
Snow Depth Not available.
6:59 AM 6:13 PM
Waning Crescent, 16% visible
METAR TJSJ 231956Z 17011G16KT 10SM FEW034 SCT060 29/19 A2989 RMK AO2 SLP120 T02940189

Get Your Daily Forecast Email!

Thanks for signing up!

Be on the lookout for a verification email in your inbox.

You'll start receiving the daily forecast at 8 AM.

×

10-Day Weather Forecast

Almanac

Astronomy

Jan. 23, 2017 Rise Set
Actual Time
Civil Twilight
Nautical Twilight
Astronomical Twilight
Moon
Length of Visible Light
Length of Day
Tomorrow will be .
, % of the Moon is Illuminated

Today's Extremes

State Highs State Lows

Community

WunderPhotos

Upload Photos

1,962,540 photos uploaded!

WunderBlog® & News

Nearby

Air Quality

  Air Quality AQ Index Pollutant
Not available.

Snow Depth

Station Depth Elevation

Earthquake Activity

City Distance Mag. Time & Date
Minimum magnitude displayed is 2.5.

Coastal Water Temperatures

Place Temperature

Stations

Nearby Weather Stations

Station Location Temp. Windchill Dew Point Humidity Wind Precip. Elev Updated Type
                   

Watches & Warnings

Coastal Hazard Statement
Issued: 1:27 PM AST Jan. 23, 2017 – National Weather Service

... High rip current risk remains in effect through late tonight...

* breaking waves... between 5 and 7 feet.

* Location... northwest through northeast facing beaches of
Puerto Rico.

* Timing... through at least late tonight.

* Impacts... strong currents that can carry even the strongest
swimmers out to sea.

Precautionary/preparedness actions...

There is a high risk of rip currents.

Rip currents are powerful channels of water flowing quickly away
from shore... which occur most often at low spots or breaks in The
Sandbar and in the vicinity of structures such as groins...
jetties and piers. Heed the advice of lifeguards... beach patrol
flags and signs.

If you become caught in a rip current... Yell for help. Remain
calm... do not exhaust yourself and stay afloat while waiting for
help. If you have to swim out of a rip current... swim parallel to
shore and back toward the beach when possible. Do not attempt to
swim directly against a rip current as you will tire quickly.